Nearby METAR Reports

 

KPMP - Pompano Beach, Florida, USA
Distance from station: NNW 3mi, 5km
Updated: 10/17/2017 4:53am
Clear
Clear
 Wind from calm
Wind: Calm
Temperature: 77°F , 25°C
Dew Point: 73°F , 23°C
Humidity: 89%
Barometer: 29.93 inHg , 1013.5 hPa
Clouds: Clear
Visibility: 9 miles , 14 km
2017/10/17 08:53 KPMP 170853Z AUTO 00000KT 9SM CLR 25/23 A2993 RMK AO2 SLP137 T02500228 56010
KFXE - Ft Lauderd/Exec, Florida, USA
Distance from station: W 6mi, 9km
Updated: 10/17/2017 4:53am
Clear
Clear
 Wind from calm
Wind: Calm
Temperature: 73°F , 23°C
Dew Point: 73°F , 23°C
Humidity: 100%
Barometer: 29.93 inHg , 1013.5 hPa
Clouds: Clear
Visibility: 10 miles , 16 km
2017/10/17 08:53 KFXE 170853Z 00000KT 10SM CLR 23/23 A2993 RMK AO2 SLP139 T02330233 56009
 
KFLL - Ft Lauderd/Holly, Florida, USA
Distance from station: SSW 11mi, 17km
Updated: 10/17/2017 4:53am
Few Clouds
Few Clouds
 Wind from calm
Wind: Calm
Temperature: 77°F , 25°C
Dew Point: 75°F , 24°C
Humidity: 94%
Barometer: 29.93 inHg , 1013.5 hPa
Clouds: Few Clouds
Visibility: 10 miles , 16 km
Cloud details: Few Clouds 2200 ft
Few Clouds 25000 ft
2017/10/17 08:53 KFLL 170853Z 00000KT 10SM FEW022 FEW250 25/24 A2993 RMK AO2 SLP133 T02500239 56011
KBCT - Boca Raton, Florida, USA
Distance from station: N 12mi, 19km
Updated: 10/16/2017 10:47pm
NOT Current
Partly cloudy
Partly cloudy
 Wind from ESE
Wind: ESE 5 mph , 7 km/h
Temperature: 79°F , 26°C
Dew Point: 73°F , 23°C
Humidity: 84%
Barometer: 29.98 inHg , 1015.2 hPa
Clouds: Partly cloudy
Visibility: 10 miles , 16 km
Cloud details: Partly cloudy 2200 ft
2017/10/17 02:47 KBCT 170247Z 11004KT 10SM SCT022 26/23 A2998 RMK LAST
 
KHWO - Hollywood, Florida, USA
Distance from station: SSW 17mi, 27km
Updated: 10/17/2017 4:53am
Clear
Clear
 Wind from calm
Wind: Calm
Temperature: 75°F , 24°C
Dew Point: 73°F , 23°C
Humidity: 94%
Barometer: 29.95 inHg , 1014.2 hPa
Clouds: Clear
Visibility: 10 miles , 16 km
2017/10/17 08:53 KHWO 170853Z AUTO 00000KT 10SM CLR 24/23 A2995 RMK AO2 SLP140 T02440228 56011
KOPF - Miami/Opa Locka, Florida, USA
Distance from station: SSW 24mi, 38km
Updated: 10/17/2017 4:53am
Clear
Clear
 Wind from calm
Wind: Calm
Temperature: 75°F , 24°C
Dew Point: 73°F , 23°C
Humidity: 94%
Barometer: 29.94 inHg , 1013.9 hPa
Clouds: Clear
Visibility: 10 miles , 16 km
2017/10/17 08:53 KOPF 170853Z AUTO 00000KT 10SM CLR 24/23 A2994 RMK AO2 SLP138 T02440233 56010
 
KMIA - Miami, Florida, USA
Distance from station: SSW 31mi, 50km
Updated: 10/17/2017 4:53am
Few Clouds
Few Clouds
 Wind from calm
Wind: Calm
Temperature: 75°F , 24°C
Dew Point: 73°F , 23°C
Humidity: 94%
Barometer: 29.93 inHg , 1013.5 hPa
Clouds: Few Clouds
Visibility: 10 miles , 16 km
Cloud details: Few Clouds 2500 ft
Few Clouds 25000 ft
2017/10/17 08:53 KMIA 170853Z 00000KT 10SM FEW025 FEW250 24/23 A2993 RMK AO2 SLP137 T02440233 56009 $
KPBI - West Palm Beach, Florida, USA
Distance from station: N 33mi, 52km
Updated: 10/17/2017 4:53am
Few Clouds
Few Clouds
 Wind from NW
Wind: NW 3 mph , 6 km/h
Temperature: 73°F , 23°C
Dew Point: 72°F , 22°C
Humidity: 94%
Barometer: 29.95 inHg , 1014.2 hPa
Clouds: Few Clouds
Visibility: 10 miles , 16 km
Cloud details: Few Clouds 2400 ft
2017/10/17 08:53 KPBI 170853Z 31003KT 10SM FEW024 23/22 A2995 RMK AO2 SLP141 T02330222 55007 $
 
KTMB - Miami/Tamiami, Florida, USA
Distance from station: SSW 44mi, 71km
Updated: 10/17/2017 4:53am
Clear
Clear
 Wind from calm
Wind: Calm
Temperature: 73°F , 23°C
Dew Point: 73°F , 23°C
Humidity: 100%
Barometer: 29.93 inHg , 1013.5 hPa
Clouds: Clear
Visibility: 10 miles , 16 km
2017/10/17 08:53 KTMB 170853Z AUTO 00000KT 10SM CLR 23/23 A2993 RMK AO2 SLP135 T02280228 56010